sensor_id;sensor_type;location;lat;lon;timestamp;P1;durP1;ratioP1;P2;durP2;ratioP2
4051;SDS011;2040;50.924;11.604;2024-01-30T00:02:10;2.30;;;2.13;;
4051;SDS011;2040;50.924;11.604;2024-01-30T00:04:36;4.80;;;2.53;;
4051;SDS011;2040;50.924;11.604;2024-01-30T00:07:01;3.90;;;2.80;;
4051;SDS011;2040;50.924;11.604;2024-01-30T00:09:27;5.80;;;3.10;;
4051;SDS011;2040;50.924;11.604;2024-01-30T00:11:52;3.57;;;3.17;;
4051;SDS011;2040;50.924;11.604;2024-01-30T00:14:18;4.70;;;2.77;;
4051;SDS011;2040;50.924;11.604;2024-01-30T00:16:43;4.00;;;2.67;;
4051;SDS011;2040;50.924;11.604;2024-01-30T00:19:09;6.47;;;2.80;;
4051;SDS011;2040;50.924;11.604;2024-01-30T00:21:34;2.73;;;2.43;;
4051;SDS011;2040;50.924;11.604;2024-01-30T00:24:00;4.53;;;2.90;;
4051;SDS011;2040;50.924;11.604;2024-01-30T00:26:26;3.00;;;2.10;;
4051;SDS011;2040;50.924;11.604;2024-01-30T00:28:51;4.10;;;2.20;;
4051;SDS011;2040;50.924;11.604;2024-01-30T00:31:17;6.57;;;2.70;;
4051;SDS011;2040;50.924;11.604;2024-01-30T00:33:42;6.30;;;2.43;;
4051;SDS011;2040;50.924;11.604;2024-01-30T00:36:08;2.83;;;2.53;;
4051;SDS011;2040;50.924;11.604;2024-01-30T00:38:35;2.23;;;2.03;;
4051;SDS011;2040;50.924;11.604;2024-01-30T00:41:01;5.37;;;2.50;;
4051;SDS011;2040;50.924;11.604;2024-01-30T00:43:28;6.00;;;2.83;;
4051;SDS011;2040;50.924;11.604;2024-01-30T00:45:53;5.10;;;2.37;;
4051;SDS011;2040;50.924;11.604;2024-01-30T00:48:19;3.40;;;2.13;;
4051;SDS011;2040;50.924;11.604;2024-01-30T00:50:45;4.53;;;2.27;;
4051;SDS011;2040;50.924;11.604;2024-01-30T00:53:10;3.10;;;2.40;;
4051;SDS011;2040;50.924;11.604;2024-01-30T00:55:36;7.60;;;2.30;;
4051;SDS011;2040;50.924;11.604;2024-01-30T00:58:02;5.07;;;2.67;;
4051;SDS011;2040;50.924;11.604;2024-01-30T01:00:28;5.07;;;2.30;;
4051;SDS011;2040;50.924;11.604;2024-01-30T01:02:57;5.47;;;2.90;;
4051;SDS011;2040;50.924;11.604;2024-01-30T01:05:23;7.70;;;3.07;;
4051;SDS011;2040;50.924;11.604;2024-01-30T01:07:49;9.50;;;3.70;;
4051;SDS011;2040;50.924;11.604;2024-01-30T01:10:15;9.73;;;3.47;;
4051;SDS011;2040;50.924;11.604;2024-01-30T01:12:43;15.57;;;3.70;;
4051;SDS011;2040;50.924;11.604;2024-01-30T01:15:09;7.17;;;2.97;;
4051;SDS011;2040;50.924;11.604;2024-01-30T01:17:36;2.90;;;2.47;;
4051;SDS011;2040;50.924;11.604;2024-01-30T01:20:03;5.70;;;2.50;;
4051;SDS011;2040;50.924;11.604;2024-01-30T01:22:30;4.40;;;3.30;;
4051;SDS011;2040;50.924;11.604;2024-01-30T01:24:56;7.10;;;3.00;;
4051;SDS011;2040;50.924;11.604;2024-01-30T01:27:21;4.40;;;2.60;;
4051;SDS011;2040;50.924;11.604;2024-01-30T01:29:47;4.90;;;2.77;;
4051;SDS011;2040;50.924;11.604;2024-01-30T01:32:13;8.60;;;3.13;;
4051;SDS011;2040;50.924;11.604;2024-01-30T01:34:38;5.13;;;3.07;;
4051;SDS011;2040;50.924;11.604;2024-01-30T01:37:04;6.00;;;3.27;;
4051;SDS011;2040;50.924;11.604;2024-01-30T01:39:29;3.90;;;2.83;;
4051;SDS011;2040;50.924;11.604;2024-01-30T01:41:55;4.10;;;3.20;;
4051;SDS011;2040;50.924;11.604;2024-01-30T01:44:20;6.33;;;2.73;;
4051;SDS011;2040;50.924;11.604;2024-01-30T01:46:46;7.60;;;3.40;;
4051;SDS011;2040;50.924;11.604;2024-01-30T01:49:12;10.53;;;3.43;;
4051;SDS011;2040;50.924;11.604;2024-01-30T01:51:39;3.87;;;2.53;;
4051;SDS011;2040;50.924;11.604;2024-01-30T01:54:07;8.13;;;3.10;;
4051;SDS011;2040;50.924;11.604;2024-01-30T01:56:34;2.70;;;2.43;;
4051;SDS011;2040;50.924;11.604;2024-01-30T01:59:01;3.53;;;2.60;;
4051;SDS011;2040;50.924;11.604;2024-01-30T02:01:32;3.87;;;2.23;;
4051;SDS011;2040;50.924;11.604;2024-01-30T02:03:58;3.50;;;2.13;;
4051;SDS011;2040;50.924;11.604;2024-01-30T02:06:24;3.83;;;2.23;;
4051;SDS011;2040;50.924;11.604;2024-01-30T02:08:51;3.47;;;2.30;;
4051;SDS011;2040;50.924;11.604;2024-01-30T02:11:16;4.63;;;2.80;;
4051;SDS011;2040;50.924;11.604;2024-01-30T02:13:42;3.83;;;1.87;;
4051;SDS011;2040;50.924;11.604;2024-01-30T02:16:07;4.83;;;2.83;;
4051;SDS011;2040;50.924;11.604;2024-01-30T02:18:33;10.40;;;3.00;;
4051;SDS011;2040;50.924;11.604;2024-01-30T02:20:59;10.33;;;2.70;;
4051;SDS011;2040;50.924;11.604;2024-01-30T02:23:29;5.10;;;2.80;;
4051;SDS011;2040;50.924;11.604;2024-01-30T02:25:57;2.40;;;2.03;;
4051;SDS011;2040;50.924;11.604;2024-01-30T02:28:22;2.23;;;2.00;;
4051;SDS011;2040;50.924;11.604;2024-01-30T02:30:48;7.27;;;2.67;;
4051;SDS011;2040;50.924;11.604;2024-01-30T02:33:13;5.03;;;2.30;;
4051;SDS011;2040;50.924;11.604;2024-01-30T02:35:39;4.60;;;2.47;;
4051;SDS011;2040;50.924;11.604;2024-01-30T02:38:05;2.83;;;2.07;;
4051;SDS011;2040;50.924;11.604;2024-01-30T02:40:30;5.30;;;1.80;;
4051;SDS011;2040;50.924;11.604;2024-01-30T02:42:58;3.80;;;2.50;;
4051;SDS011;2040;50.924;11.604;2024-01-30T02:45:44;7.90;;;2.03;;
4051;SDS011;2040;50.924;11.604;2024-01-30T02:48:09;4.00;;;2.30;;
4051;SDS011;2040;50.924;11.604;2024-01-30T02:50:35;2.60;;;2.07;;
4051;SDS011;2040;50.924;11.604;2024-01-30T02:53:00;5.43;;;2.30;;
4051;SDS011;2040;50.924;11.604;2024-01-30T02:55:26;1.80;;;1.70;;
4051;SDS011;2040;50.924;11.604;2024-01-30T02:57:51;2.97;;;2.63;;
4051;SDS011;2040;50.924;11.604;2024-01-30T03:00:18;8.80;;;2.57;;
4051;SDS011;2040;50.924;11.604;2024-01-30T03:02:44;4.70;;;2.70;;
4051;SDS011;2040;50.924;11.604;2024-01-30T03:05:10;4.00;;;2.33;;
4051;SDS011;2040;50.924;11.604;2024-01-30T03:07:38;5.00;;;2.70;;
4051;SDS011;2040;50.924;11.604;2024-01-30T03:10:04;4.90;;;2.60;;
4051;SDS011;2040;50.924;11.604;2024-01-30T03:12:31;2.40;;;2.20;;
4051;SDS011;2040;50.924;11.604;2024-01-30T03:14:56;4.20;;;2.70;;
4051;SDS011;2040;50.924;11.604;2024-01-30T03:17:22;5.00;;;2.53;;
4051;SDS011;2040;50.924;11.604;2024-01-30T03:19:49;6.50;;;2.70;;
4051;SDS011;2040;50.924;11.604;2024-01-30T03:22:14;7.77;;;3.20;;
4051;SDS011;2040;50.924;11.604;2024-01-30T03:24:40;7.87;;;2.97;;
4051;SDS011;2040;50.924;11.604;2024-01-30T03:27:05;3.00;;;2.60;;
4051;SDS011;2040;50.924;11.604;2024-01-30T03:29:31;5.73;;;2.77;;
4051;SDS011;2040;50.924;11.604;2024-01-30T03:31:56;8.33;;;2.93;;
4051;SDS011;2040;50.924;11.604;2024-01-30T03:34:22;4.73;;;2.70;;
4051;SDS011;2040;50.924;11.604;2024-01-30T03:36:48;6.93;;;3.33;;
4051;SDS011;2040;50.924;11.604;2024-01-30T03:39:13;4.30;;;2.63;;
4051;SDS011;2040;50.924;11.604;2024-01-30T03:41:41;5.27;;;2.53;;
4051;SDS011;2040;50.924;11.604;2024-01-30T03:44:07;4.40;;;2.53;;
4051;SDS011;2040;50.924;11.604;2024-01-30T03:46:33;4.40;;;2.97;;
4051;SDS011;2040;50.924;11.604;2024-01-30T03:48:58;3.93;;;2.97;;
4051;SDS011;2040;50.924;11.604;2024-01-30T03:51:24;5.27;;;2.90;;
4051;SDS011;2040;50.924;11.604;2024-01-30T03:53:49;5.70;;;2.30;;
4051;SDS011;2040;50.924;11.604;2024-01-30T03:56:15;10.07;;;2.60;;
4051;SDS011;2040;50.924;11.604;2024-01-30T03:58:40;2.73;;;2.10;;
4051;SDS011;2040;50.924;11.604;2024-01-30T04:01:06;8.17;;;2.80;;
4051;SDS011;2040;50.924;11.604;2024-01-30T04:03:32;6.03;;;2.80;;
4051;SDS011;2040;50.924;11.604;2024-01-30T04:05:58;8.03;;;3.17;;
4051;SDS011;2040;50.924;11.604;2024-01-30T04:08:23;3.90;;;2.30;;
4051;SDS011;2040;50.924;11.604;2024-01-30T04:10:49;8.50;;;3.33;;
4051;SDS011;2040;50.924;11.604;2024-01-30T04:13:14;5.40;;;2.70;;
4051;SDS011;2040;50.924;11.604;2024-01-30T04:15:40;7.50;;;3.60;;
4051;SDS011;2040;50.924;11.604;2024-01-30T04:18:05;4.47;;;2.00;;
4051;SDS011;2040;50.924;11.604;2024-01-30T04:20:31;2.70;;;2.03;;
4051;SDS011;2040;50.924;11.604;2024-01-30T04:22:56;2.87;;;1.87;;
4051;SDS011;2040;50.924;11.604;2024-01-30T04:25:22;4.37;;;2.83;;
4051;SDS011;2040;50.924;11.604;2024-01-30T04:27:48;3.50;;;2.60;;
4051;SDS011;2040;50.924;11.604;2024-01-30T04:30:13;3.83;;;2.23;;
4051;SDS011;2040;50.924;11.604;2024-01-30T04:32:39;7.03;;;2.70;;
4051;SDS011;2040;50.924;11.604;2024-01-30T04:35:05;3.63;;;2.17;;
4051;SDS011;2040;50.924;11.604;2024-01-30T04:37:30;3.13;;;2.10;;
4051;SDS011;2040;50.924;11.604;2024-01-30T04:39:56;5.00;;;2.50;;
4051;SDS011;2040;50.924;11.604;2024-01-30T04:42:22;4.20;;;1.87;;
4051;SDS011;2040;50.924;11.604;2024-01-30T04:44:48;3.40;;;1.87;;
4051;SDS011;2040;50.924;11.604;2024-01-30T04:47:14;2.13;;;1.90;;
4051;SDS011;2040;50.924;11.604;2024-01-30T04:49:39;2.70;;;2.00;;
4051;SDS011;2040;50.924;11.604;2024-01-30T04:52:05;4.87;;;1.97;;
4051;SDS011;2040;50.924;11.604;2024-01-30T04:54:31;2.60;;;1.73;;
4051;SDS011;2040;50.924;11.604;2024-01-30T04:56:57;10.10;;;2.33;;
4051;SDS011;2040;50.924;11.604;2024-01-30T04:59:23;2.80;;;2.00;;
4051;SDS011;2040;50.924;11.604;2024-01-30T05:01:49;6.40;;;2.30;;
4051;SDS011;2040;50.924;11.604;2024-01-30T05:04:14;2.40;;;2.00;;
4051;SDS011;2040;50.924;11.604;2024-01-30T05:06:40;3.40;;;2.77;;
4051;SDS011;2040;50.924;11.604;2024-01-30T05:09:05;2.70;;;2.30;;
4051;SDS011;2040;50.924;11.604;2024-01-30T05:11:31;2.87;;;2.13;;
4051;SDS011;2040;50.924;11.604;2024-01-30T05:14:01;4.03;;;2.37;;
4051;SDS011;2040;50.924;11.604;2024-01-30T05:16:27;4.53;;;2.50;;
4051;SDS011;2040;50.924;11.604;2024-01-30T05:18:52;5.13;;;2.67;;
4051;SDS011;2040;50.924;11.604;2024-01-30T05:21:18;3.57;;;2.33;;
4051;SDS011;2040;50.924;11.604;2024-01-30T05:23:44;3.83;;;1.90;;
4051;SDS011;2040;50.924;11.604;2024-01-30T05:26:09;2.80;;;1.90;;
4051;SDS011;2040;50.924;11.604;2024-01-30T05:28:35;2.10;;;1.63;;
4051;SDS011;2040;50.924;11.604;2024-01-30T05:31:01;5.03;;;2.10;;
4051;SDS011;2040;50.924;11.604;2024-01-30T05:33:27;2.00;;;1.80;;
4051;SDS011;2040;50.924;11.604;2024-01-30T05:35:52;3.27;;;2.40;;
4051;SDS011;2040;50.924;11.604;2024-01-30T05:38:21;3.97;;;2.30;;
4051;SDS011;2040;50.924;11.604;2024-01-30T05:40:46;6.13;;;2.47;;
4051;SDS011;2040;50.924;11.604;2024-01-30T05:43:12;4.50;;;3.00;;
4051;SDS011;2040;50.924;11.604;2024-01-30T05:45:37;4.83;;;2.63;;
4051;SDS011;2040;50.924;11.604;2024-01-30T05:48:03;8.07;;;2.80;;
4051;SDS011;2040;50.924;11.604;2024-01-30T05:50:29;4.83;;;2.20;;
4051;SDS011;2040;50.924;11.604;2024-01-30T05:52:55;4.00;;;2.60;;
4051;SDS011;2040;50.924;11.604;2024-01-30T05:55:20;3.23;;;2.17;;
4051;SDS011;2040;50.924;11.604;2024-01-30T05:57:46;3.50;;;2.40;;
4051;SDS011;2040;50.924;11.604;2024-01-30T06:00:11;3.43;;;2.20;;
4051;SDS011;2040;50.924;11.604;2024-01-30T06:02:37;4.27;;;2.07;;
4051;SDS011;2040;50.924;11.604;2024-01-30T06:05:03;3.87;;;2.57;;
4051;SDS011;2040;50.924;11.604;2024-01-30T06:07:29;3.23;;;2.40;;
4051;SDS011;2040;50.924;11.604;2024-01-30T06:09:54;1.93;;;1.70;;
4051;SDS011;2040;50.924;11.604;2024-01-30T06:12:20;8.70;;;3.00;;
4051;SDS011;2040;50.924;11.604;2024-01-30T06:14:45;3.87;;;2.20;;
4051;SDS011;2040;50.924;11.604;2024-01-30T06:17:11;2.90;;;1.87;;
4051;SDS011;2040;50.924;11.604;2024-01-30T06:19:37;4.20;;;2.07;;
4051;SDS011;2040;50.924;11.604;2024-01-30T06:22:06;5.70;;;2.23;;
4051;SDS011;2040;50.924;11.604;2024-01-30T06:24:32;2.33;;;2.00;;
4051;SDS011;2040;50.924;11.604;2024-01-30T06:26:59;2.07;;;1.80;;
4051;SDS011;2040;50.924;11.604;2024-01-30T06:29:24;3.10;;;1.90;;
4051;SDS011;2040;50.924;11.604;2024-01-30T06:31:51;2.57;;;1.90;;
4051;SDS011;2040;50.924;11.604;2024-01-30T06:34:17;2.60;;;2.07;;
4051;SDS011;2040;50.924;11.604;2024-01-30T06:36:42;2.27;;;1.73;;
4051;SDS011;2040;50.924;11.604;2024-01-30T06:39:08;3.60;;;2.30;;
4051;SDS011;2040;50.924;11.604;2024-01-30T06:41:34;4.90;;;2.20;;
4051;SDS011;2040;50.924;11.604;2024-01-30T06:43:59;3.40;;;1.97;;
4051;SDS011;2040;50.924;11.604;2024-01-30T06:46:26;6.90;;;2.50;;
4051;SDS011;2040;50.924;11.604;2024-01-30T06:48:52;12.40;;;2.60;;
4051;SDS011;2040;50.924;11.604;2024-01-30T06:51:18;3.37;;;2.10;;
4051;SDS011;2040;50.924;11.604;2024-01-30T06:53:43;4.37;;;2.47;;
4051;SDS011;2040;50.924;11.604;2024-01-30T06:56:09;2.27;;;2.07;;
4051;SDS011;2040;50.924;11.604;2024-01-30T06:58:34;2.73;;;2.10;;
4051;SDS011;2040;50.924;11.604;2024-01-30T07:01:00;6.73;;;3.37;;
4051;SDS011;2040;50.924;11.604;2024-01-30T07:03:25;3.50;;;2.70;;
4051;SDS011;2040;50.924;11.604;2024-01-30T07:05:51;2.40;;;2.20;;
4051;SDS011;2040;50.924;11.604;2024-01-30T07:08:17;4.07;;;2.53;;
4051;SDS011;2040;50.924;11.604;2024-01-30T07:10:43;2.80;;;2.27;;
4051;SDS011;2040;50.924;11.604;2024-01-30T07:13:09;5.77;;;3.47;;
4051;SDS011;2040;50.924;11.604;2024-01-30T07:15:36;2.90;;;2.30;;
4051;SDS011;2040;50.924;11.604;2024-01-30T07:18:05;3.47;;;1.93;;
4051;SDS011;2040;50.924;11.604;2024-01-30T07:20:30;8.67;;;2.53;;
4051;SDS011;2040;50.924;11.604;2024-01-30T07:22:57;3.63;;;2.93;;
4051;SDS011;2040;50.924;11.604;2024-01-30T07:25:23;3.93;;;3.03;;
4051;SDS011;2040;50.924;11.604;2024-01-30T07:27:52;4.10;;;2.70;;
4051;SDS011;2040;50.924;11.604;2024-01-30T07:30:18;4.00;;;2.30;;
4051;SDS011;2040;50.924;11.604;2024-01-30T07:32:44;4.40;;;2.80;;
4051;SDS011;2040;50.924;11.604;2024-01-30T07:35:10;12.83;;;2.90;;
4051;SDS011;2040;50.924;11.604;2024-01-30T07:37:37;7.23;;;3.43;;
4051;SDS011;2040;50.924;11.604;2024-01-30T07:40:03;4.47;;;2.80;;
4051;SDS011;2040;50.924;11.604;2024-01-30T07:42:29;3.90;;;2.43;;
4051;SDS011;2040;50.924;11.604;2024-01-30T07:44:54;3.53;;;2.43;;
4051;SDS011;2040;50.924;11.604;2024-01-30T07:47:20;3.63;;;2.77;;
4051;SDS011;2040;50.924;11.604;2024-01-30T07:49:46;3.30;;;2.40;;
4051;SDS011;2040;50.924;11.604;2024-01-30T07:52:12;4.23;;;2.33;;
4051;SDS011;2040;50.924;11.604;2024-01-30T07:54:37;5.53;;;2.10;;
4051;SDS011;2040;50.924;11.604;2024-01-30T07:57:04;5.10;;;3.13;;
4051;SDS011;2040;50.924;11.604;2024-01-30T07:59:29;2.40;;;2.20;;
4051;SDS011;2040;50.924;11.604;2024-01-30T08:01:55;4.10;;;2.80;;
4051;SDS011;2040;50.924;11.604;2024-01-30T08:04:20;3.30;;;2.60;;
4051;SDS011;2040;50.924;11.604;2024-01-30T08:06:46;5.40;;;2.40;;
4051;SDS011;2040;50.924;11.604;2024-01-30T08:09:11;3.87;;;2.23;;
4051;SDS011;2040;50.924;11.604;2024-01-30T08:11:37;4.00;;;3.30;;
4051;SDS011;2040;50.924;11.604;2024-01-30T08:14:02;4.33;;;2.47;;
4051;SDS011;2040;50.924;11.604;2024-01-30T08:16:28;4.53;;;3.00;;
4051;SDS011;2040;50.924;11.604;2024-01-30T08:18:54;4.23;;;2.70;;
4051;SDS011;2040;50.924;11.604;2024-01-30T08:21:22;10.27;;;4.37;;
4051;SDS011;2040;50.924;11.604;2024-01-30T08:23:48;5.87;;;3.60;;
4051;SDS011;2040;50.924;11.604;2024-01-30T08:26:13;5.43;;;3.60;;
4051;SDS011;2040;50.924;11.604;2024-01-30T08:28:39;4.43;;;2.90;;
4051;SDS011;2040;50.924;11.604;2024-01-30T08:31:04;6.27;;;2.87;;
4051;SDS011;2040;50.924;11.604;2024-01-30T08:33:30;6.00;;;3.63;;
4051;SDS011;2040;50.924;11.604;2024-01-30T08:35:55;6.80;;;2.97;;
4051;SDS011;2040;50.924;11.604;2024-01-30T08:38:21;4.83;;;3.40;;
4051;SDS011;2040;50.924;11.604;2024-01-30T08:40:46;5.60;;;3.17;;
4051;SDS011;2040;50.924;11.604;2024-01-30T08:43:12;4.40;;;2.93;;
4051;SDS011;2040;50.924;11.604;2024-01-30T08:45:38;5.67;;;2.60;;
4051;SDS011;2040;50.924;11.604;2024-01-30T08:48:03;8.37;;;3.33;;
4051;SDS011;2040;50.924;11.604;2024-01-30T08:50:29;6.60;;;3.10;;
4051;SDS011;2040;50.924;11.604;2024-01-30T08:52:54;5.53;;;2.63;;
4051;SDS011;2040;50.924;11.604;2024-01-30T08:55:21;4.03;;;2.40;;
4051;SDS011;2040;50.924;11.604;2024-01-30T08:57:47;5.67;;;2.77;;
4051;SDS011;2040;50.924;11.604;2024-01-30T09:00:12;4.93;;;2.83;;
4051;SDS011;2040;50.924;11.604;2024-01-30T09:02:38;4.20;;;3.30;;
4051;SDS011;2040;50.924;11.604;2024-01-30T09:05:04;6.10;;;3.20;;
4051;SDS011;2040;50.924;11.604;2024-01-30T09:07:29;3.60;;;2.90;;
4051;SDS011;2040;50.924;11.604;2024-01-30T09:09:55;8.23;;;3.00;;
4051;SDS011;2040;50.924;11.604;2024-01-30T09:12:21;3.70;;;3.00;;
4051;SDS011;2040;50.924;11.604;2024-01-30T09:14:46;5.70;;;2.30;;
4051;SDS011;2040;50.924;11.604;2024-01-30T09:17:12;12.13;;;2.67;;
4051;SDS011;2040;50.924;11.604;2024-01-30T09:19:38;4.23;;;2.23;;
4051;SDS011;2040;50.924;11.604;2024-01-30T09:22:03;6.33;;;3.23;;
4051;SDS011;2040;50.924;11.604;2024-01-30T09:24:29;5.87;;;3.20;;
4051;SDS011;2040;50.924;11.604;2024-01-30T09:26:54;5.23;;;3.47;;
4051;SDS011;2040;50.924;11.604;2024-01-30T09:29:20;5.50;;;3.43;;
4051;SDS011;2040;50.924;11.604;2024-01-30T09:31:49;5.50;;;3.23;;
4051;SDS011;2040;50.924;11.604;2024-01-30T09:34:14;4.33;;;3.40;;
4051;SDS011;2040;50.924;11.604;2024-01-30T09:36:40;6.40;;;3.47;;
4051;SDS011;2040;50.924;11.604;2024-01-30T09:39:06;6.63;;;3.00;;
4051;SDS011;2040;50.924;11.604;2024-01-30T09:41:32;9.33;;;3.53;;
4051;SDS011;2040;50.924;11.604;2024-01-30T09:44:01;4.83;;;3.40;;
4051;SDS011;2040;50.924;11.604;2024-01-30T09:46:28;4.67;;;3.33;;
4051;SDS011;2040;50.924;11.604;2024-01-30T09:48:56;6.30;;;3.53;;
4051;SDS011;2040;50.924;11.604;2024-01-30T09:51:23;8.83;;;3.47;;
4051;SDS011;2040;50.924;11.604;2024-01-30T09:53:51;11.63;;;3.37;;
4051;SDS011;2040;50.924;11.604;2024-01-30T09:56:18;5.23;;;3.00;;
4051;SDS011;2040;50.924;11.604;2024-01-30T09:58:44;5.73;;;3.83;;
4051;SDS011;2040;50.924;11.604;2024-01-30T10:01:10;4.53;;;2.93;;
4051;SDS011;2040;50.924;11.604;2024-01-30T10:03:35;5.03;;;3.80;;
4051;SDS011;2040;50.924;11.604;2024-01-30T10:06:01;10.30;;;3.27;;
4051;SDS011;2040;50.924;11.604;2024-01-30T10:08:27;5.60;;;3.63;;
4051;SDS011;2040;50.924;11.604;2024-01-30T10:10:54;4.77;;;3.57;;
4051;SDS011;2040;50.924;11.604;2024-01-30T10:13:20;7.33;;;3.07;;
4051;SDS011;2040;50.924;11.604;2024-01-30T10:15:47;6.77;;;3.47;;
4051;SDS011;2040;50.924;11.604;2024-01-30T10:18:13;6.23;;;3.00;;
4051;SDS011;2040;50.924;11.604;2024-01-30T10:20:38;6.67;;;3.27;;
4051;SDS011;2040;50.924;11.604;2024-01-30T10:23:04;5.83;;;3.60;;
4051;SDS011;2040;50.924;11.604;2024-01-30T10:25:33;5.60;;;3.80;;
4051;SDS011;2040;50.924;11.604;2024-01-30T10:27:58;8.30;;;4.00;;
4051;SDS011;2040;50.924;11.604;2024-01-30T10:30:24;7.50;;;3.63;;
4051;SDS011;2040;50.924;11.604;2024-01-30T10:32:50;3.80;;;3.40;;
4051;SDS011;2040;50.924;11.604;2024-01-30T10:35:16;6.13;;;3.30;;
4051;SDS011;2040;50.924;11.604;2024-01-30T10:37:51;5.73;;;3.63;;
4051;SDS011;2040;50.924;11.604;2024-01-30T10:40:17;5.03;;;2.73;;
4051;SDS011;2040;50.924;11.604;2024-01-30T10:42:48;7.00;;;3.10;;
4051;SDS011;2040;50.924;11.604;2024-01-30T10:45:18;4.90;;;3.00;;
4051;SDS011;2040;50.924;11.604;2024-01-30T10:47:54;4.00;;;3.10;;
4051;SDS011;2040;50.924;11.604;2024-01-30T10:50:27;4.43;;;3.23;;
4051;SDS011;2040;50.924;11.604;2024-01-30T10:52:55;3.70;;;3.20;;
4051;SDS011;2040;50.924;11.604;2024-01-30T10:55:22;6.83;;;3.50;;
4051;SDS011;2040;50.924;11.604;2024-01-30T10:57:50;7.23;;;3.30;;
4051;SDS011;2040;50.924;11.604;2024-01-30T11:00:16;7.00;;;3.13;;
4051;SDS011;2040;50.924;11.604;2024-01-30T11:02:45;4.87;;;2.90;;
4051;SDS011;2040;50.924;11.604;2024-01-30T11:05:11;4.07;;;3.03;;
4051;SDS011;2040;50.924;11.604;2024-01-30T11:07:39;5.47;;;2.87;;
4051;SDS011;2040;50.924;11.604;2024-01-30T11:10:06;8.27;;;3.73;;
4051;SDS011;2040;50.924;11.604;2024-01-30T11:12:37;5.50;;;3.13;;
4051;SDS011;2040;50.924;11.604;2024-01-30T11:15:12;5.67;;;3.00;;
4051;SDS011;2040;50.924;11.604;2024-01-30T11:17:42;7.10;;;3.40;;
4051;SDS011;2040;50.924;11.604;2024-01-30T11:20:15;5.60;;;3.40;;
4051;SDS011;2040;50.924;11.604;2024-01-30T11:22:44;6.63;;;4.00;;
4051;SDS011;2040;50.924;11.604;2024-01-30T11:25:11;4.83;;;3.50;;
4051;SDS011;2040;50.924;11.604;2024-01-30T11:27:38;5.53;;;3.50;;
4051;SDS011;2040;50.924;11.604;2024-01-30T11:30:05;8.73;;;3.27;;
4051;SDS011;2040;50.924;11.604;2024-01-30T11:32:32;4.50;;;3.10;;
4051;SDS011;2040;50.924;11.604;2024-01-30T11:34:58;6.07;;;3.30;;
4051;SDS011;2040;50.924;11.604;2024-01-30T11:37:25;5.03;;;3.27;;
4051;SDS011;2040;50.924;11.604;2024-01-30T11:39:54;5.70;;;3.53;;
4051;SDS011;2040;50.924;11.604;2024-01-30T11:42:21;8.40;;;3.17;;
4051;SDS011;2040;50.924;11.604;2024-01-30T11:44:49;5.90;;;2.87;;
4051;SDS011;2040;50.924;11.604;2024-01-30T11:47:16;8.70;;;4.00;;
4051;SDS011;2040;50.924;11.604;2024-01-30T11:49:42;6.10;;;3.47;;
4051;SDS011;2040;50.924;11.604;2024-01-30T11:52:08;4.13;;;3.40;;
4051;SDS011;2040;50.924;11.604;2024-01-30T11:54:34;4.50;;;3.13;;
4051;SDS011;2040;50.924;11.604;2024-01-30T11:57:00;9.27;;;3.80;;
4051;SDS011;2040;50.924;11.604;2024-01-30T11:59:26;4.57;;;3.23;;
4051;SDS011;2040;50.924;11.604;2024-01-30T12:01:51;5.33;;;3.20;;
4051;SDS011;2040;50.924;11.604;2024-01-30T12:04:17;5.43;;;3.20;;
4051;SDS011;2040;50.924;11.604;2024-01-30T12:06:43;6.80;;;3.37;;
4051;SDS011;2040;50.924;11.604;2024-01-30T12:09:09;7.20;;;3.90;;
4051;SDS011;2040;50.924;11.604;2024-01-30T12:11:47;8.87;;;4.17;;
4051;SDS011;2040;50.924;11.604;2024-01-30T12:14:13;4.20;;;3.30;;
4051;SDS011;2040;50.924;11.604;2024-01-30T12:16:40;7.43;;;3.93;;
4051;SDS011;2040;50.924;11.604;2024-01-30T12:19:06;6.87;;;3.10;;
4051;SDS011;2040;50.924;11.604;2024-01-30T12:21:33;5.37;;;3.30;;
4051;SDS011;2040;50.924;11.604;2024-01-30T12:23:59;6.07;;;3.40;;
4051;SDS011;2040;50.924;11.604;2024-01-30T12:26:25;6.23;;;3.57;;
4051;SDS011;2040;50.924;11.604;2024-01-30T12:28:54;7.93;;;4.07;;
4051;SDS011;2040;50.924;11.604;2024-01-30T12:31:26;7.93;;;3.37;;
4051;SDS011;2040;50.924;11.604;2024-01-30T12:33:58;5.83;;;3.60;;
4051;SDS011;2040;50.924;11.604;2024-01-30T12:36:25;5.10;;;2.80;;
4051;SDS011;2040;50.924;11.604;2024-01-30T12:38:51;8.20;;;3.90;;
4051;SDS011;2040;50.924;11.604;2024-01-30T12:41:17;5.23;;;3.53;;
4051;SDS011;2040;50.924;11.604;2024-01-30T12:43:43;8.20;;;3.43;;
4051;SDS011;2040;50.924;11.604;2024-01-30T12:46:09;6.57;;;3.30;;
4051;SDS011;2040;50.924;11.604;2024-01-30T12:48:35;8.63;;;4.07;;
4051;SDS011;2040;50.924;11.604;2024-01-30T12:51:01;5.57;;;3.60;;
4051;SDS011;2040;50.924;11.604;2024-01-30T12:53:26;5.47;;;3.80;;
4051;SDS011;2040;50.924;11.604;2024-01-30T12:55:52;6.23;;;4.37;;
4051;SDS011;2040;50.924;11.604;2024-01-30T12:58:19;4.50;;;3.20;;
4051;SDS011;2040;50.924;11.604;2024-01-30T13:00:45;8.50;;;3.77;;
4051;SDS011;2040;50.924;11.604;2024-01-30T13:03:12;6.97;;;3.73;;
4051;SDS011;2040;50.924;11.604;2024-01-30T13:05:37;5.07;;;3.60;;
4051;SDS011;2040;50.924;11.604;2024-01-30T13:08:03;9.13;;;4.20;;
4051;SDS011;2040;50.924;11.604;2024-01-30T13:10:29;6.60;;;3.43;;
4051;SDS011;2040;50.924;11.604;2024-01-30T13:12:55;8.00;;;3.57;;
4051;SDS011;2040;50.924;11.604;2024-01-30T13:15:21;6.30;;;4.20;;
4051;SDS011;2040;50.924;11.604;2024-01-30T13:17:47;8.67;;;3.63;;
4051;SDS011;2040;50.924;11.604;2024-01-30T13:20:14;5.53;;;3.90;;
4051;SDS011;2040;50.924;11.604;2024-01-30T13:22:44;4.70;;;3.50;;
4051;SDS011;2040;50.924;11.604;2024-01-30T13:25:10;6.33;;;3.37;;
4051;SDS011;2040;50.924;11.604;2024-01-30T13:27:36;8.20;;;3.37;;
4051;SDS011;2040;50.924;11.604;2024-01-30T13:30:02;8.00;;;3.83;;
4051;SDS011;2040;50.924;11.604;2024-01-30T13:32:29;6.60;;;4.47;;
4051;SDS011;2040;50.924;11.604;2024-01-30T13:34:54;4.40;;;3.27;;
4051;SDS011;2040;50.924;11.604;2024-01-30T13:37:20;5.80;;;3.13;;
4051;SDS011;2040;50.924;11.604;2024-01-30T13:39:46;4.20;;;3.17;;
4051;SDS011;2040;50.924;11.604;2024-01-30T13:42:12;6.37;;;3.70;;
4051;SDS011;2040;50.924;11.604;2024-01-30T13:44:38;6.80;;;4.23;;
4051;SDS011;2040;50.924;11.604;2024-01-30T13:47:03;6.07;;;3.40;;
4051;SDS011;2040;50.924;11.604;2024-01-30T13:49:29;7.87;;;3.70;;
4051;SDS011;2040;50.924;11.604;2024-01-30T13:51:54;7.70;;;3.70;;
4051;SDS011;2040;50.924;11.604;2024-01-30T13:54:20;5.60;;;3.60;;
4051;SDS011;2040;50.924;11.604;2024-01-30T13:56:46;5.60;;;3.60;;
4051;SDS011;2040;50.924;11.604;2024-01-30T13:59:11;4.97;;;3.57;;
4051;SDS011;2040;50.924;11.604;2024-01-30T14:01:37;7.67;;;3.43;;
4051;SDS011;2040;50.924;11.604;2024-01-30T14:04:03;5.30;;;2.70;;
4051;SDS011;2040;50.924;11.604;2024-01-30T14:06:28;5.10;;;3.50;;
4051;SDS011;2040;50.924;11.604;2024-01-30T14:08:54;6.93;;;3.93;;
4051;SDS011;2040;50.924;11.604;2024-01-30T14:11:20;4.23;;;2.97;;
4051;SDS011;2040;50.924;11.604;2024-01-30T14:13:46;7.40;;;4.30;;
4051;SDS011;2040;50.924;11.604;2024-01-30T14:16:11;4.93;;;2.90;;
4051;SDS011;2040;50.924;11.604;2024-01-30T14:18:37;5.80;;;3.00;;
4051;SDS011;2040;50.924;11.604;2024-01-30T14:21:02;6.13;;;3.07;;
4051;SDS011;2040;50.924;11.604;2024-01-30T14:23:28;5.90;;;3.53;;
4051;SDS011;2040;50.924;11.604;2024-01-30T14:25:54;7.23;;;3.00;;
4051;SDS011;2040;50.924;11.604;2024-01-30T14:28:19;6.03;;;3.13;;
4051;SDS011;2040;50.924;11.604;2024-01-30T14:30:45;15.17;;;4.07;;
4051;SDS011;2040;50.924;11.604;2024-01-30T14:33:11;8.33;;;3.53;;
4051;SDS011;2040;50.924;11.604;2024-01-30T14:35:36;5.10;;;2.87;;
4051;SDS011;2040;50.924;11.604;2024-01-30T14:38:02;5.10;;;3.03;;
4051;SDS011;2040;50.924;11.604;2024-01-30T14:40:30;10.50;;;3.00;;
4051;SDS011;2040;50.924;11.604;2024-01-30T14:42:56;5.97;;;3.10;;
4051;SDS011;2040;50.924;11.604;2024-01-30T14:45:21;3.80;;;2.50;;
4051;SDS011;2040;50.924;11.604;2024-01-30T14:47:47;5.53;;;2.80;;
4051;SDS011;2040;50.924;11.604;2024-01-30T14:50:13;6.37;;;3.30;;
4051;SDS011;2040;50.924;11.604;2024-01-30T14:52:38;5.90;;;3.33;;
4051;SDS011;2040;50.924;11.604;2024-01-30T14:55:05;2.83;;;2.53;;